sensor_id;sensor_type;location;lat;lon;timestamp;P1;durP1;ratioP1;P2;durP2;ratioP2
48993;SDS011;34804;49.214;12.276;2023-03-24T00:01:51;5.90;;;2.70;;
48993;SDS011;34804;49.214;12.276;2023-03-24T00:04:18;6.15;;;2.85;;
48993;SDS011;34804;49.214;12.276;2023-03-24T00:06:47;5.47;;;3.10;;
48993;SDS011;34804;49.214;12.276;2023-03-24T00:09:15;6.13;;;2.90;;
48993;SDS011;34804;49.214;12.276;2023-03-24T00:11:42;7.75;;;2.78;;
48993;SDS011;34804;49.214;12.276;2023-03-24T00:14:09;6.93;;;3.17;;
48993;SDS011;34804;49.214;12.276;2023-03-24T00:16:38;6.40;;;3.40;;
48993;SDS011;34804;49.214;12.276;2023-03-24T00:19:11;5.95;;;3.08;;
48993;SDS011;34804;49.214;12.276;2023-03-24T00:21:40;7.28;;;3.20;;
48993;SDS011;34804;49.214;12.276;2023-03-24T00:24:07;5.15;;;2.80;;
48993;SDS011;34804;49.214;12.276;2023-03-24T00:26:37;6.78;;;2.95;;
48993;SDS011;34804;49.214;12.276;2023-03-24T00:29:05;6.53;;;2.78;;
48993;SDS011;34804;49.214;12.276;2023-03-24T00:31:34;7.82;;;3.42;;
48993;SDS011;34804;49.214;12.276;2023-03-24T00:34:06;6.28;;;3.10;;
48993;SDS011;34804;49.214;12.276;2023-03-24T00:36:34;5.70;;;2.88;;
48993;SDS011;34804;49.214;12.276;2023-03-24T00:39:02;5.90;;;3.10;;
48993;SDS011;34804;49.214;12.276;2023-03-24T00:41:31;6.10;;;3.40;;
48993;SDS011;34804;49.214;12.276;2023-03-24T00:43:58;6.28;;;3.22;;
48993;SDS011;34804;49.214;12.276;2023-03-24T00:46:28;7.97;;;3.30;;
48993;SDS011;34804;49.214;12.276;2023-03-24T00:48:56;5.97;;;2.75;;
48993;SDS011;34804;49.214;12.276;2023-03-24T00:51:32;5.00;;;3.03;;
48993;SDS011;34804;49.214;12.276;2023-03-24T00:54:01;5.85;;;2.80;;
48993;SDS011;34804;49.214;12.276;2023-03-24T00:56:29;6.72;;;3.33;;
48993;SDS011;34804;49.214;12.276;2023-03-24T00:58:57;5.80;;;2.88;;
48993;SDS011;34804;49.214;12.276;2023-03-24T01:01:28;6.43;;;3.30;;
48993;SDS011;34804;49.214;12.276;2023-03-24T01:03:58;6.53;;;3.05;;
48993;SDS011;34804;49.214;12.276;2023-03-24T01:06:26;6.25;;;2.70;;
48993;SDS011;34804;49.214;12.276;2023-03-24T01:08:53;7.75;;;3.33;;
48993;SDS011;34804;49.214;12.276;2023-03-24T01:11:20;7.90;;;3.47;;
48993;SDS011;34804;49.214;12.276;2023-03-24T01:13:50;6.82;;;3.55;;
48993;SDS011;34804;49.214;12.276;2023-03-24T01:16:17;5.82;;;3.20;;
48993;SDS011;34804;49.214;12.276;2023-03-24T01:18:45;6.63;;;3.10;;
48993;SDS011;34804;49.214;12.276;2023-03-24T01:21:11;9.25;;;3.38;;
48993;SDS011;34804;49.214;12.276;2023-03-24T01:23:39;6.47;;;3.33;;
48993;SDS011;34804;49.214;12.276;2023-03-24T01:26:08;7.07;;;2.90;;
48993;SDS011;34804;49.214;12.276;2023-03-24T01:28:35;6.97;;;3.15;;
48993;SDS011;34804;49.214;12.276;2023-03-24T01:31:09;7.13;;;3.63;;
48993;SDS011;34804;49.214;12.276;2023-03-24T01:33:37;6.05;;;3.17;;
48993;SDS011;34804;49.214;12.276;2023-03-24T01:36:04;5.50;;;3.20;;
48993;SDS011;34804;49.214;12.276;2023-03-24T01:38:32;8.43;;;3.10;;
48993;SDS011;34804;49.214;12.276;2023-03-24T01:40:59;5.47;;;2.80;;
48993;SDS011;34804;49.214;12.276;2023-03-24T01:43:27;5.93;;;3.25;;
48993;SDS011;34804;49.214;12.276;2023-03-24T01:46:17;6.50;;;3.35;;
48993;SDS011;34804;49.214;12.276;2023-03-24T01:48:57;7.07;;;3.30;;
48993;SDS011;34804;49.214;12.276;2023-03-24T01:51:32;8.32;;;3.40;;
48993;SDS011;34804;49.214;12.276;2023-03-24T01:54:08;8.63;;;3.35;;
48993;SDS011;34804;49.214;12.276;2023-03-24T01:56:40;7.07;;;3.45;;
48993;SDS011;34804;49.214;12.276;2023-03-24T01:59:11;5.10;;;2.88;;
48993;SDS011;34804;49.214;12.276;2023-03-24T02:01:42;8.48;;;3.42;;
48993;SDS011;34804;49.214;12.276;2023-03-24T02:04:09;6.55;;;3.13;;
48993;SDS011;34804;49.214;12.276;2023-03-24T02:06:38;6.07;;;3.20;;
48993;SDS011;34804;49.214;12.276;2023-03-24T02:09:09;8.38;;;3.72;;
48993;SDS011;34804;49.214;12.276;2023-03-24T02:11:38;6.93;;;3.60;;
48993;SDS011;34804;49.214;12.276;2023-03-24T02:14:06;6.43;;;3.40;;
48993;SDS011;34804;49.214;12.276;2023-03-24T02:19:40;6.75;;;3.47;;
48993;SDS011;34804;49.214;12.276;2023-03-24T02:22:44;5.95;;;3.45;;
48993;SDS011;34804;49.214;12.276;2023-03-24T02:25:27;6.22;;;3.60;;
48993;SDS011;34804;49.214;12.276;2023-03-24T02:28:06;6.97;;;3.35;;
48993;SDS011;34804;49.214;12.276;2023-03-24T02:30:47;8.00;;;4.15;;
48993;SDS011;34804;49.214;12.276;2023-03-24T02:36:30;6.25;;;3.55;;
48993;SDS011;34804;49.214;12.276;2023-03-24T02:39:26;8.10;;;3.53;;
48993;SDS011;34804;49.214;12.276;2023-03-24T02:42:14;8.40;;;4.25;;
48993;SDS011;34804;49.214;12.276;2023-03-24T02:53:06;7.32;;;4.30;;
48993;SDS011;34804;49.214;12.276;2023-03-24T02:55:50;6.13;;;3.45;;
48993;SDS011;34804;49.214;12.276;2023-03-24T02:58:35;7.10;;;3.20;;
48993;SDS011;34804;49.214;12.276;2023-03-24T03:01:09;9.65;;;3.90;;
48993;SDS011;34804;49.214;12.276;2023-03-24T03:03:49;6.07;;;3.60;;
48993;SDS011;34804;49.214;12.276;2023-03-24T03:06:21;6.63;;;3.80;;
48993;SDS011;34804;49.214;12.276;2023-03-24T03:08:54;8.18;;;4.55;;
48993;SDS011;34804;49.214;12.276;2023-03-24T03:11:24;8.40;;;4.22;;
48993;SDS011;34804;49.214;12.276;2023-03-24T03:13:58;6.95;;;4.95;;
48993;SDS011;34804;49.214;12.276;2023-03-24T03:17:31;8.95;;;5.38;;
48993;SDS011;34804;49.214;12.276;2023-03-24T03:19:31;14.40;;;6.63;;
48993;SDS011;34804;49.214;12.276;2023-03-24T03:22:32;11.73;;;6.63;;
48993;SDS011;34804;49.214;12.276;2023-03-24T03:25:08;8.60;;;5.93;;
48993;SDS011;34804;49.214;12.276;2023-03-24T03:27:39;9.25;;;5.88;;
48993;SDS011;34804;49.214;12.276;2023-03-24T03:30:14;10.02;;;5.75;;
48993;SDS011;34804;49.214;12.276;2023-03-24T03:32:48;10.32;;;5.68;;
48993;SDS011;34804;49.214;12.276;2023-03-24T03:35:24;9.63;;;5.80;;
48993;SDS011;34804;49.214;12.276;2023-03-24T03:38:24;11.52;;;6.35;;
48993;SDS011;34804;49.214;12.276;2023-03-24T03:41:01;8.88;;;5.13;;
48993;SDS011;34804;49.214;12.276;2023-03-24T03:43:30;9.43;;;4.90;;
48993;SDS011;34804;49.214;12.276;2023-03-24T03:45:58;10.38;;;4.60;;
48993;SDS011;34804;49.214;12.276;2023-03-24T03:48:26;7.18;;;4.57;;
48993;SDS011;34804;49.214;12.276;2023-03-24T03:50:54;8.75;;;5.50;;
48993;SDS011;34804;49.214;12.276;2023-03-24T03:56:13;12.18;;;6.32;;
48993;SDS011;34804;49.214;12.276;2023-03-24T03:58:45;10.13;;;5.87;;
48993;SDS011;34804;49.214;12.276;2023-03-24T04:01:15;10.77;;;5.70;;
48993;SDS011;34804;49.214;12.276;2023-03-24T04:09:20;10.05;;;5.43;;
48993;SDS011;34804;49.214;12.276;2023-03-24T04:17:44;8.23;;;5.25;;
48993;SDS011;34804;49.214;12.276;2023-03-24T04:26:28;8.50;;;4.63;;
48993;SDS011;34804;49.214;12.276;2023-03-24T04:29:16;10.95;;;5.93;;
48993;SDS011;34804;49.214;12.276;2023-03-24T04:31:52;10.18;;;5.65;;
48993;SDS011;34804;49.214;12.276;2023-03-24T04:34:35;10.88;;;5.70;;
48993;SDS011;34804;49.214;12.276;2023-03-24T04:37:11;7.95;;;4.97;;
48993;SDS011;34804;49.214;12.276;2023-03-24T04:39:42;10.30;;;5.28;;
48993;SDS011;34804;49.214;12.276;2023-03-24T04:42:19;7.93;;;5.20;;
48993;SDS011;34804;49.214;12.276;2023-03-24T04:44:50;11.55;;;5.63;;
48993;SDS011;34804;49.214;12.276;2023-03-24T04:47:18;10.02;;;5.45;;
48993;SDS011;34804;49.214;12.276;2023-03-24T04:49:48;9.60;;;5.28;;
48993;SDS011;34804;49.214;12.276;2023-03-24T04:52:14;12.90;;;5.97;;
48993;SDS011;34804;49.214;12.276;2023-03-24T04:54:43;9.50;;;5.97;;
48993;SDS011;34804;49.214;12.276;2023-03-24T04:57:10;10.15;;;6.07;;
48993;SDS011;34804;49.214;12.276;2023-03-24T04:59:37;9.88;;;5.53;;
48993;SDS011;34804;49.214;12.276;2023-03-24T05:02:03;10.77;;;5.13;;
48993;SDS011;34804;49.214;12.276;2023-03-24T05:04:30;8.95;;;5.53;;
48993;SDS011;34804;49.214;12.276;2023-03-24T05:07:02;10.68;;;6.07;;
48993;SDS011;34804;49.214;12.276;2023-03-24T05:09:29;11.95;;;6.60;;
48993;SDS011;34804;49.214;12.276;2023-03-24T05:11:57;10.88;;;5.70;;
48993;SDS011;34804;49.214;12.276;2023-03-24T05:14:26;8.38;;;5.55;;
48993;SDS011;34804;49.214;12.276;2023-03-24T05:16:53;8.98;;;5.30;;
48993;SDS011;34804;49.214;12.276;2023-03-24T05:19:20;8.90;;;5.18;;
48993;SDS011;34804;49.214;12.276;2023-03-24T05:21:47;8.40;;;5.40;;
48993;SDS011;34804;49.214;12.276;2023-03-24T05:24:14;8.63;;;5.15;;
48993;SDS011;34804;49.214;12.276;2023-03-24T05:26:41;8.02;;;4.93;;
48993;SDS011;34804;49.214;12.276;2023-03-24T05:29:07;9.88;;;4.95;;
48993;SDS011;34804;49.214;12.276;2023-03-24T05:31:34;9.07;;;4.70;;
48993;SDS011;34804;49.214;12.276;2023-03-24T05:34:01;8.68;;;4.63;;
48993;SDS011;34804;49.214;12.276;2023-03-24T05:36:28;7.38;;;4.90;;
48993;SDS011;34804;49.214;12.276;2023-03-24T05:38:55;8.23;;;4.63;;
48993;SDS011;34804;49.214;12.276;2023-03-24T05:41:22;6.80;;;4.32;;
48993;SDS011;34804;49.214;12.276;2023-03-24T05:43:48;8.45;;;4.63;;
48993;SDS011;34804;49.214;12.276;2023-03-24T05:46:15;10.07;;;5.40;;
48993;SDS011;34804;49.214;12.276;2023-03-24T05:48:42;7.35;;;4.30;;
48993;SDS011;34804;49.214;12.276;2023-03-24T05:51:09;8.35;;;4.57;;
48993;SDS011;34804;49.214;12.276;2023-03-24T05:53:35;7.55;;;3.97;;
48993;SDS011;34804;49.214;12.276;2023-03-24T05:56:02;6.97;;;4.60;;
48993;SDS011;34804;49.214;12.276;2023-03-24T05:58:31;8.35;;;4.30;;
48993;SDS011;34804;49.214;12.276;2023-03-24T06:01:04;8.23;;;4.22;;
48993;SDS011;34804;49.214;12.276;2023-03-24T06:03:32;7.72;;;4.38;;
48993;SDS011;34804;49.214;12.276;2023-03-24T06:06:00;7.78;;;4.57;;
48993;SDS011;34804;49.214;12.276;2023-03-24T06:08:27;11.40;;;5.47;;
48993;SDS011;34804;49.214;12.276;2023-03-24T06:10:59;7.97;;;4.80;;
48993;SDS011;34804;49.214;12.276;2023-03-24T06:13:28;8.20;;;4.72;;
48993;SDS011;34804;49.214;12.276;2023-03-24T06:15:56;8.88;;;4.70;;
48993;SDS011;34804;49.214;12.276;2023-03-24T06:18:25;10.68;;;4.60;;
48993;SDS011;34804;49.214;12.276;2023-03-24T06:20:53;8.20;;;5.03;;
48993;SDS011;34804;49.214;12.276;2023-03-24T06:23:26;7.95;;;4.47;;
48993;SDS011;34804;49.214;12.276;2023-03-24T06:25:54;6.65;;;4.03;;
48993;SDS011;34804;49.214;12.276;2023-03-24T06:28:23;7.38;;;4.47;;
48993;SDS011;34804;49.214;12.276;2023-03-24T06:30:51;8.10;;;4.15;;
48993;SDS011;34804;49.214;12.276;2023-03-24T06:33:18;8.20;;;5.00;;
48993;SDS011;34804;49.214;12.276;2023-03-24T06:35:47;9.77;;;5.15;;
48993;SDS011;34804;49.214;12.276;2023-03-24T06:38:14;7.22;;;4.60;;
48993;SDS011;34804;49.214;12.276;2023-03-24T06:40:41;9.15;;;5.05;;
48993;SDS011;34804;49.214;12.276;2023-03-24T06:43:07;8.10;;;4.50;;
48993;SDS011;34804;49.214;12.276;2023-03-24T06:45:34;9.55;;;5.00;;
48993;SDS011;34804;49.214;12.276;2023-03-24T06:48:02;7.78;;;4.75;;
48993;SDS011;34804;49.214;12.276;2023-03-24T06:50:29;9.02;;;4.72;;
48993;SDS011;34804;49.214;12.276;2023-03-24T06:52:59;6.82;;;4.45;;
48993;SDS011;34804;49.214;12.276;2023-03-24T06:55:26;9.05;;;4.63;;
48993;SDS011;34804;49.214;12.276;2023-03-24T06:57:54;8.98;;;4.97;;
48993;SDS011;34804;49.214;12.276;2023-03-24T07:00:21;7.63;;;4.68;;
48993;SDS011;34804;49.214;12.276;2023-03-24T07:02:48;8.73;;;4.75;;
48993;SDS011;34804;49.214;12.276;2023-03-24T07:05:15;6.93;;;3.95;;
48993;SDS011;34804;49.214;12.276;2023-03-24T07:07:42;8.48;;;4.43;;
48993;SDS011;34804;49.214;12.276;2023-03-24T07:10:12;6.72;;;4.20;;
48993;SDS011;34804;49.214;12.276;2023-03-24T07:12:39;9.32;;;4.25;;
48993;SDS011;34804;49.214;12.276;2023-03-24T07:15:06;6.10;;;3.60;;
48993;SDS011;34804;49.214;12.276;2023-03-24T07:17:34;7.90;;;3.90;;
48993;SDS011;34804;49.214;12.276;2023-03-24T07:20:02;6.85;;;3.78;;
48993;SDS011;34804;49.214;12.276;2023-03-24T07:22:34;5.85;;;3.67;;
48993;SDS011;34804;49.214;12.276;2023-03-24T07:25:02;6.22;;;3.55;;
48993;SDS011;34804;49.214;12.276;2023-03-24T07:27:31;5.75;;;3.17;;
48993;SDS011;34804;49.214;12.276;2023-03-24T07:29:58;6.70;;;3.50;;
48993;SDS011;34804;49.214;12.276;2023-03-24T07:32:25;6.40;;;3.42;;
48993;SDS011;34804;49.214;12.276;2023-03-24T07:34:55;6.75;;;3.28;;
48993;SDS011;34804;49.214;12.276;2023-03-24T07:37:22;5.47;;;3.30;;
48993;SDS011;34804;49.214;12.276;2023-03-24T07:39:49;5.95;;;2.97;;
48993;SDS011;34804;49.214;12.276;2023-03-24T07:42:16;6.68;;;3.38;;
48993;SDS011;34804;49.214;12.276;2023-03-24T07:44:43;5.32;;;2.85;;
48993;SDS011;34804;49.214;12.276;2023-03-24T07:47:10;7.07;;;3.22;;
48993;SDS011;34804;49.214;12.276;2023-03-24T07:49:37;5.35;;;3.28;;
48993;SDS011;34804;49.214;12.276;2023-03-24T07:52:05;6.78;;;3.40;;
48993;SDS011;34804;49.214;12.276;2023-03-24T07:54:32;9.43;;;3.42;;
48993;SDS011;34804;49.214;12.276;2023-03-24T07:56:59;5.38;;;2.45;;
48993;SDS011;34804;49.214;12.276;2023-03-24T07:59:28;5.93;;;3.28;;
48993;SDS011;34804;49.214;12.276;2023-03-24T08:01:54;5.63;;;2.15;;
48993;SDS011;34804;49.214;12.276;2023-03-24T08:04:25;5.55;;;2.35;;
48993;SDS011;34804;49.214;12.276;2023-03-24T08:06:55;6.38;;;2.78;;
48993;SDS011;34804;49.214;12.276;2023-03-24T08:09:22;5.00;;;2.50;;
48993;SDS011;34804;49.214;12.276;2023-03-24T08:11:50;7.50;;;2.75;;
48993;SDS011;34804;49.214;12.276;2023-03-24T08:14:17;7.18;;;2.92;;
48993;SDS011;34804;49.214;12.276;2023-03-24T08:16:44;7.78;;;3.03;;
48993;SDS011;34804;49.214;12.276;2023-03-24T08:19:11;5.30;;;2.63;;
48993;SDS011;34804;49.214;12.276;2023-03-24T08:21:38;5.07;;;2.60;;
48993;SDS011;34804;49.214;12.276;2023-03-24T08:24:05;6.60;;;2.83;;
48993;SDS011;34804;49.214;12.276;2023-03-24T08:26:32;4.22;;;2.15;;
48993;SDS011;34804;49.214;12.276;2023-03-24T08:29:00;4.90;;;2.42;;
48993;SDS011;34804;49.214;12.276;2023-03-24T08:31:32;5.35;;;2.67;;
48993;SDS011;34804;49.214;12.276;2023-03-24T08:34:02;7.40;;;2.70;;
48993;SDS011;34804;49.214;12.276;2023-03-24T08:36:30;5.15;;;2.60;;
48993;SDS011;34804;49.214;12.276;2023-03-24T08:38:57;5.35;;;2.75;;
48993;SDS011;34804;49.214;12.276;2023-03-24T08:41:26;5.95;;;3.00;;
48993;SDS011;34804;49.214;12.276;2023-03-24T08:46:32;6.43;;;3.40;;
48993;SDS011;34804;49.214;12.276;2023-03-24T08:49:00;5.40;;;3.03;;
48993;SDS011;34804;49.214;12.276;2023-03-24T08:51:27;5.50;;;3.20;;
48993;SDS011;34804;49.214;12.276;2023-03-24T08:53:54;7.40;;;3.55;;
48993;SDS011;34804;49.214;12.276;2023-03-24T08:56:21;7.38;;;3.30;;
48993;SDS011;34804;49.214;12.276;2023-03-24T08:58:48;7.05;;;3.17;;
48993;SDS011;34804;49.214;12.276;2023-03-24T09:01:19;6.22;;;3.22;;
48993;SDS011;34804;49.214;12.276;2023-03-24T09:03:48;7.13;;;3.67;;
48993;SDS011;34804;49.214;12.276;2023-03-24T09:06:14;5.97;;;3.17;;
48993;SDS011;34804;49.214;12.276;2023-03-24T09:08:41;5.93;;;3.20;;
48993;SDS011;34804;49.214;12.276;2023-03-24T09:11:15;8.95;;;3.78;;
48993;SDS011;34804;49.214;12.276;2023-03-24T09:13:44;7.13;;;4.00;;
48993;SDS011;34804;49.214;12.276;2023-03-24T09:16:11;9.60;;;4.25;;
48993;SDS011;34804;49.214;12.276;2023-03-24T09:18:38;6.72;;;4.07;;
48993;SDS011;34804;49.214;12.276;2023-03-24T09:21:05;7.80;;;4.53;;
48993;SDS011;34804;49.214;12.276;2023-03-24T09:23:32;9.52;;;4.60;;
48993;SDS011;34804;49.214;12.276;2023-03-24T09:26:00;8.63;;;4.38;;
48993;SDS011;34804;49.214;12.276;2023-03-24T09:28:28;7.78;;;4.53;;
48993;SDS011;34804;49.214;12.276;2023-03-24T09:30:56;8.70;;;5.13;;
48993;SDS011;34804;49.214;12.276;2023-03-24T09:33:23;8.38;;;5.07;;
48993;SDS011;34804;49.214;12.276;2023-03-24T09:35:54;9.20;;;4.90;;
48993;SDS011;34804;49.214;12.276;2023-03-24T09:38:25;8.30;;;5.20;;
48993;SDS011;34804;49.214;12.276;2023-03-24T09:40:53;9.25;;;5.00;;
48993;SDS011;34804;49.214;12.276;2023-03-24T09:43:25;7.47;;;4.75;;
48993;SDS011;34804;49.214;12.276;2023-03-24T09:45:57;7.40;;;5.18;;
48993;SDS011;34804;49.214;12.276;2023-03-24T09:48:32;8.70;;;5.40;;
48993;SDS011;34804;49.214;12.276;2023-03-24T09:51:25;7.72;;;5.22;;
48993;SDS011;34804;49.214;12.276;2023-03-24T09:56:28;10.43;;;5.68;;
48993;SDS011;34804;49.214;12.276;2023-03-24T09:59:00;8.90;;;5.50;;
48993;SDS011;34804;49.214;12.276;2023-03-24T10:01:32;9.57;;;5.00;;
48993;SDS011;34804;49.214;12.276;2023-03-24T10:04:01;10.15;;;5.68;;
48993;SDS011;34804;49.214;12.276;2023-03-24T10:20:32;9.00;;;5.55;;
48993;SDS011;34804;49.214;12.276;2023-03-24T10:25:50;8.75;;;5.55;;
48993;SDS011;34804;49.214;12.276;2023-03-24T10:28:34;9.15;;;5.57;;
48993;SDS011;34804;49.214;12.276;2023-03-24T10:31:19;10.25;;;5.28;;
48993;SDS011;34804;49.214;12.276;2023-03-24T10:33:53;9.88;;;5.72;;
48993;SDS011;34804;49.214;12.276;2023-03-24T10:36:20;8.50;;;5.43;;
48993;SDS011;34804;49.214;12.276;2023-03-24T10:38:48;8.02;;;4.85;;
48993;SDS011;34804;49.214;12.276;2023-03-24T10:41:17;10.32;;;5.18;;
48993;SDS011;34804;49.214;12.276;2023-03-24T10:43:49;9.80;;;5.50;;
48993;SDS011;34804;49.214;12.276;2023-03-24T10:46:19;8.85;;;5.57;;
48993;SDS011;34804;49.214;12.276;2023-03-24T10:48:49;8.40;;;4.80;;
48993;SDS011;34804;49.214;12.276;2023-03-24T10:51:37;10.63;;;6.00;;
48993;SDS011;34804;49.214;12.276;2023-03-24T10:54:09;8.48;;;5.32;;
48993;SDS011;34804;49.214;12.276;2023-03-24T10:56:49;8.50;;;5.10;;
48993;SDS011;34804;49.214;12.276;2023-03-24T10:59:19;6.72;;;4.00;;
48993;SDS011;34804;49.214;12.276;2023-03-24T11:01:46;6.88;;;3.58;;
48993;SDS011;34804;49.214;12.276;2023-03-24T11:04:14;6.57;;;3.70;;
48993;SDS011;34804;49.214;12.276;2023-03-24T11:07:02;7.72;;;4.32;;
48993;SDS011;34804;49.214;12.276;2023-03-24T11:09:38;8.98;;;3.03;;
48993;SDS011;34804;49.214;12.276;2023-03-24T11:12:20;6.38;;;3.70;;
48993;SDS011;34804;49.214;12.276;2023-03-24T11:14:48;6.10;;;3.10;;
48993;SDS011;34804;49.214;12.276;2023-03-24T11:17:15;6.18;;;3.10;;
48993;SDS011;34804;49.214;12.276;2023-03-24T11:19:52;5.22;;;2.92;;
48993;SDS011;34804;49.214;12.276;2023-03-24T11:22:20;6.88;;;3.30;;
48993;SDS011;34804;49.214;12.276;2023-03-24T11:24:51;5.05;;;2.75;;
48993;SDS011;34804;49.214;12.276;2023-03-24T11:27:21;6.20;;;2.35;;
48993;SDS011;34804;49.214;12.276;2023-03-24T11:29:48;5.38;;;2.72;;
48993;SDS011;34804;49.214;12.276;2023-03-24T11:32:25;5.20;;;2.20;;
48993;SDS011;34804;49.214;12.276;2023-03-24T11:35:00;4.72;;;2.35;;
48993;SDS011;34804;49.214;12.276;2023-03-24T11:37:32;5.38;;;2.00;;
48993;SDS011;34804;49.214;12.276;2023-03-24T11:42:50;5.18;;;2.45;;
48993;SDS011;34804;49.214;12.276;2023-03-24T11:45:33;5.22;;;2.58;;
48993;SDS011;34804;49.214;12.276;2023-03-24T11:50:57;5.30;;;2.67;;
48993;SDS011;34804;49.214;12.276;2023-03-24T11:53:27;5.07;;;2.60;;
48993;SDS011;34804;49.214;12.276;2023-03-24T11:56:10;5.80;;;2.42;;
48993;SDS011;34804;49.214;12.276;2023-03-24T12:04:31;5.07;;;3.10;;
48993;SDS011;34804;49.214;12.276;2023-03-24T12:09:53;5.97;;;3.00;;
48993;SDS011;34804;49.214;12.276;2023-03-24T12:15:07;5.28;;;3.00;;
48993;SDS011;34804;49.214;12.276;2023-03-24T12:18:06;5.65;;;2.60;;
48993;SDS011;34804;49.214;12.276;2023-03-24T12:20:39;6.07;;;3.25;;
48993;SDS011;34804;49.214;12.276;2023-03-24T12:23:44;7.65;;;3.20;;
48993;SDS011;34804;49.214;12.276;2023-03-24T12:31:58;4.90;;;3.08;;
48993;SDS011;34804;49.214;12.276;2023-03-24T12:34:54;6.50;;;3.45;;
48993;SDS011;34804;49.214;12.276;2023-03-24T12:37:38;5.35;;;3.08;;
48993;SDS011;34804;49.214;12.276;2023-03-24T12:48:26;6.82;;;2.95;;
48993;SDS011;34804;49.214;12.276;2023-03-24T12:51:11;5.55;;;2.88;;
48993;SDS011;34804;49.214;12.276;2023-03-24T12:56:46;4.72;;;2.50;;
48993;SDS011;34804;49.214;12.276;2023-03-24T12:59:18;6.03;;;2.50;;
48993;SDS011;34804;49.214;12.276;2023-03-24T13:01:54;5.15;;;2.90;;
48993;SDS011;34804;49.214;12.276;2023-03-24T13:04:38;6.13;;;2.63;;
48993;SDS011;34804;49.214;12.276;2023-03-24T13:07:10;5.95;;;2.65;;
48993;SDS011;34804;49.214;12.276;2023-03-24T13:12:19;5.10;;;2.55;;
48993;SDS011;34804;49.214;12.276;2023-03-24T13:17:40;5.85;;;2.55;;
48993;SDS011;34804;49.214;12.276;2023-03-24T13:20:25;4.63;;;2.00;;
48993;SDS011;34804;49.214;12.276;2023-03-24T13:22:58;5.57;;;2.40;;
48993;SDS011;34804;49.214;12.276;2023-03-24T13:28:12;6.03;;;2.47;;
48993;SDS011;34804;49.214;12.276;2023-03-24T13:30:46;4.95;;;2.40;;
48993;SDS011;34804;49.214;12.276;2023-03-24T13:33:15;7.00;;;2.17;;
48993;SDS011;34804;49.214;12.276;2023-03-24T13:38:25;6.03;;;2.75;;
48993;SDS011;34804;49.214;12.276;2023-03-24T13:40:57;5.03;;;2.15;;
48993;SDS011;34804;49.214;12.276;2023-03-24T13:43:24;3.78;;;1.63;;
48993;SDS011;34804;49.214;12.276;2023-03-24T13:45:59;4.68;;;2.03;;
48993;SDS011;34804;49.214;12.276;2023-03-24T13:48:41;4.18;;;2.00;;
48993;SDS011;34804;49.214;12.276;2023-03-24T13:53:56;4.25;;;2.13;;
48993;SDS011;34804;49.214;12.276;2023-03-24T13:56:52;4.15;;;1.83;;
48993;SDS011;34804;49.214;12.276;2023-03-24T13:59:27;7.25;;;2.33;;
48993;SDS011;34804;49.214;12.276;2023-03-24T14:05:04;4.50;;;2.15;;
48993;SDS011;34804;49.214;12.276;2023-03-24T14:10:26;3.90;;;1.75;;
48993;SDS011;34804;49.214;12.276;2023-03-24T14:13:03;3.72;;;1.73;;
48993;SDS011;34804;49.214;12.276;2023-03-24T14:23:39;3.70;;;1.70;;
48993;SDS011;34804;49.214;12.276;2023-03-24T14:26:13;3.70;;;1.73;;
48993;SDS011;34804;49.214;12.276;2023-03-24T14:28:48;4.70;;;1.92;;
48993;SDS011;34804;49.214;12.276;2023-03-24T14:31:30;3.08;;;1.60;;
48993;SDS011;34804;49.214;12.276;2023-03-24T14:34:08;3.88;;;1.85;;
48993;SDS011;34804;49.214;12.276;2023-03-24T14:36:46;3.22;;;1.50;;
48993;SDS011;34804;49.214;12.276;2023-03-24T14:39:26;4.55;;;1.80;;
48993;SDS011;34804;49.214;12.276;2023-03-24T14:44:54;5.00;;;1.77;;
48993;SDS011;34804;49.214;12.276;2023-03-24T14:47:22;4.18;;;1.63;;
48993;SDS011;34804;49.214;12.276;2023-03-24T14:49:55;3.33;;;1.33;;
48993;SDS011;34804;49.214;12.276;2023-03-24T14:54:53;4.55;;;1.88;;
48993;SDS011;34804;49.214;12.276;2023-03-24T14:57:23;6.15;;;1.85;;
48993;SDS011;34804;49.214;12.276;2023-03-24T14:59:54;4.53;;;1.83;;
48993;SDS011;34804;49.214;12.276;2023-03-24T15:07:59;4.82;;;1.80;;
48993;SDS011;34804;49.214;12.276;2023-03-24T15:10:26;3.80;;;1.48;;
48993;SDS011;34804;49.214;12.276;2023-03-24T15:13:00;3.88;;;1.38;;
48993;SDS011;34804;49.214;12.276;2023-03-24T15:15:27;3.78;;;1.60;;
48993;SDS011;34804;49.214;12.276;2023-03-24T15:17:54;3.97;;;1.55;;
48993;SDS011;34804;49.214;12.276;2023-03-24T15:20:28;2.78;;;1.20;;
48993;SDS011;34804;49.214;12.276;2023-03-24T15:23:07;3.42;;;1.45;;
48993;SDS011;34804;49.214;12.276;2023-03-24T15:25:39;3.50;;;1.50;;
48993;SDS011;34804;49.214;12.276;2023-03-24T15:28:17;4.10;;;1.33;;
48993;SDS011;34804;49.214;12.276;2023-03-24T15:30:56;4.20;;;1.40;;
48993;SDS011;34804;49.214;12.276;2023-03-24T15:33:27;2.75;;;1.35;;
48993;SDS011;34804;49.214;12.276;2023-03-24T15:35:58;4.00;;;1.42;;
48993;SDS011;34804;49.214;12.276;2023-03-24T15:38:29;3.17;;;1.30;;
48993;SDS011;34804;49.214;12.276;2023-03-24T15:41:07;3.03;;;1.23;;
48993;SDS011;34804;49.214;12.276;2023-03-24T15:43:50;3.28;;;1.30;;
48993;SDS011;34804;49.214;12.276;2023-03-24T15:46:19;2.63;;;1.30;;
48993;SDS011;34804;49.214;12.276;2023-03-24T15:48:51;3.80;;;1.40;;
48993;SDS011;34804;49.214;12.276;2023-03-24T15:51:23;2.88;;;1.17;;
48993;SDS011;34804;49.214;12.276;2023-03-24T15:54:18;3.80;;;1.33;;
48993;SDS011;34804;49.214;12.276;2023-03-24T15:57:35;3.08;;;1.35;;
48993;SDS011;34804;49.214;12.276;2023-03-24T16:02:31;2.55;;;1.17;;
48993;SDS011;34804;49.214;12.276;2023-03-24T16:05:10;3.97;;;1.10;;
48993;SDS011;34804;49.214;12.276;2023-03-24T16:10:36;3.10;;;1.00;;
48993;SDS011;34804;49.214;12.276;2023-03-24T16:13:19;3.30;;;1.27;;
48993;SDS011;34804;49.214;12.276;2023-03-24T16:18:35;4.05;;;1.15;;
48993;SDS011;34804;49.214;12.276;2023-03-24T16:23:45;2.67;;;1.10;;
48993;SDS011;34804;49.214;12.276;2023-03-24T16:26:20;3.47;;;1.17;;
48993;SDS011;34804;49.214;12.276;2023-03-24T16:28:58;2.65;;;1.17;;
48993;SDS011;34804;49.214;12.276;2023-03-24T16:31:44;2.50;;;0.93;;
48993;SDS011;34804;49.214;12.276;2023-03-24T16:34:15;2.72;;;1.13;;
48993;SDS011;34804;49.214;12.276;2023-03-24T16:36:44;1.95;;;0.73;;
48993;SDS011;34804;49.214;12.276;2023-03-24T16:39:13;2.65;;;0.88;;
48993;SDS011;34804;49.214;12.276;2023-03-24T16:41:43;1.80;;;0.80;;
48993;SDS011;34804;49.214;12.276;2023-03-24T16:44:10;2.28;;;0.80;;
48993;SDS011;34804;49.214;12.276;2023-03-24T16:46:39;1.52;;;0.77;;
48993;SDS011;34804;49.214;12.276;2023-03-24T16:49:07;1.95;;;1.00;;
48993;SDS011;34804;49.214;12.276;2023-03-24T16:51:37;2.15;;;0.98;;
48993;SDS011;34804;49.214;12.276;2023-03-24T16:54:04;1.75;;;0.82;;
48993;SDS011;34804;49.214;12.276;2023-03-24T16:56:32;2.45;;;0.88;;
48993;SDS011;34804;49.214;12.276;2023-03-24T16:58:59;3.67;;;1.10;;
48993;SDS011;34804;49.214;12.276;2023-03-24T17:03:55;1.98;;;0.90;;
48993;SDS011;34804;49.214;12.276;2023-03-24T17:06:25;2.67;;;0.90;;
48993;SDS011;34804;49.214;12.276;2023-03-24T17:08:56;1.63;;;0.70;;
48993;SDS011;34804;49.214;12.276;2023-03-24T17:13:55;1.30;;;0.70;;
48993;SDS011;34804;49.214;12.276;2023-03-24T17:16:27;3.78;;;1.10;;
48993;SDS011;34804;49.214;12.276;2023-03-24T17:18:55;3.42;;;1.10;;
48993;SDS011;34804;49.214;12.276;2023-03-24T17:21:22;2.95;;;0.93;;
48993;SDS011;34804;49.214;12.276;2023-03-24T17:23:49;2.22;;;0.80;;
48993;SDS011;34804;49.214;12.276;2023-03-24T17:26:21;2.15;;;0.73;;